createdAt,value
2023-03-22T00:00:59.127Z,10.09
2023-03-22T00:03:32.185Z,10.04
2023-03-22T00:06:07.642Z,9.99
2023-03-22T00:08:41.187Z,9.93
2023-03-22T00:11:14.284Z,9.83
2023-03-22T00:13:47.378Z,9.76
2023-03-22T00:16:20.748Z,9.68
2023-03-22T00:18:53.845Z,9.58
2023-03-22T00:21:28.320Z,9.56
2023-03-22T00:24:01.411Z,9.51
2023-03-22T00:26:34.553Z,9.44
2023-03-22T00:29:07.636Z,9.36
2023-03-22T00:31:41.129Z,9.28
2023-03-22T00:34:14.293Z,9.23
2023-03-22T00:36:48.981Z,9.20
2023-03-22T00:39:22.093Z,9.18
2023-03-22T00:41:55.246Z,9.13
2023-03-22T00:44:28.373Z,9.10
2023-03-22T00:47:01.609Z,8.99
2023-03-22T00:49:35.249Z,8.96
2023-03-22T00:52:09.683Z,8.92
2023-03-22T00:54:42.923Z,8.86
2023-03-22T00:57:16.387Z,8.73
2023-03-22T00:59:49.782Z,8.61
2023-03-22T01:02:29.874Z,8.61
2023-03-22T01:05:02.998Z,8.58
2023-03-22T01:07:41.562Z,8.58
2023-03-22T01:10:14.822Z,8.54
2023-03-22T01:12:47.888Z,8.50
2023-03-22T01:15:22.488Z,8.43
2023-03-22T01:17:55.787Z,8.39
2023-03-22T01:20:29.338Z,8.35
2023-03-22T01:23:03.936Z,8.34
2023-03-22T01:25:36.995Z,8.32
2023-03-22T01:28:10.367Z,8.29
2023-03-22T01:30:43.498Z,8.22
2023-03-22T01:33:16.600Z,8.15
2023-03-22T01:35:49.697Z,8.13
2023-03-22T01:38:24.125Z,8.04
2023-03-22T01:40:57.426Z,8.03
2023-03-22T01:43:30.499Z,8.04
2023-03-22T01:46:03.609Z,8.07
2023-03-22T01:48:41.941Z,8.04
2023-03-22T01:51:18.478Z,7.96
2023-03-22T01:53:59.606Z,7.94
2023-03-22T01:56:36.044Z,7.92
2023-03-22T01:59:12.162Z,7.81
2023-03-22T02:01:46.985Z,7.81
2023-03-22T02:04:23.403Z,7.83
2023-03-22T02:06:56.823Z,7.82
2023-03-22T02:09:31.248Z,7.78
2023-03-22T02:12:17.967Z,7.73
2023-03-22T02:15:05.354Z,7.65
2023-03-22T02:17:52.752Z,7.62
2023-03-22T02:21:02.490Z,7.63
2023-03-22T02:24:14.952Z,7.55
2023-03-22T02:27:24.829Z,7.41
2023-03-22T02:30:18.097Z,7.41
2023-03-22T02:33:24.971Z,7.43
2023-03-22T02:36:24.231Z,7.44
2023-03-22T02:39:22.069Z,7.37
2023-03-22T02:42:09.348Z,7.35
2023-03-22T02:44:45.981Z,7.30
2023-03-22T02:47:25.297Z,7.29
2023-03-22T02:50:05.747Z,7.27
2023-03-22T02:52:44.003Z,7.20
2023-03-22T02:55:24.950Z,7.18
2023-03-22T02:58:03.569Z,7.09
2023-03-22T03:00:39.423Z,7.05
2023-03-22T03:03:18.169Z,7.01
2023-03-22T03:05:56.114Z,6.95
2023-03-22T03:08:30.276Z,6.92
2023-03-22T03:11:05.005Z,6.91
2023-03-22T03:13:38.019Z,6.88
2023-03-22T03:16:17.619Z,6.85
2023-03-22T03:18:57.679Z,6.84
2023-03-22T03:21:37.042Z,6.85
2023-03-22T03:24:22.617Z,6.89
2023-03-22T03:27:03.451Z,6.88
2023-03-22T03:29:43.917Z,6.85
2023-03-22T03:32:25.572Z,6.86
2023-03-22T03:35:05.397Z,6.85
2023-03-22T03:37:42.336Z,6.80
2023-03-22T03:40:19.182Z,6.78
2023-03-22T03:42:57.717Z,6.71
2023-03-22T03:45:31.548Z,6.65
2023-03-22T03:48:09.592Z,6.65
2023-03-22T03:50:43.349Z,6.59
2023-03-22T03:53:16.390Z,6.52
2023-03-22T03:55:49.461Z,6.51
2023-03-22T03:58:23.902Z,6.54
2023-03-22T04:00:57.423Z,6.52
2023-03-22T04:03:30.591Z,6.55
2023-03-22T04:06:04.210Z,6.49
2023-03-22T04:08:37.349Z,6.49
2023-03-22T04:11:10.321Z,6.46
2023-03-22T04:13:44.677Z,6.49
2023-03-22T04:16:17.706Z,6.48
2023-03-22T04:18:50.745Z,6.47
2023-03-22T04:21:23.809Z,6.41
2023-03-22T04:23:56.840Z,6.37
2023-03-22T04:26:29.902Z,6.34
2023-03-22T04:29:05.230Z,6.28
2023-03-22T04:31:39.079Z,6.25
2023-03-22T04:34:12.150Z,6.22
2023-03-22T04:36:45.208Z,6.16
2023-03-22T04:39:19.414Z,6.18
2023-03-22T04:41:52.378Z,6.17
2023-03-22T04:44:27.067Z,6.14
2023-03-22T04:47:00.081Z,6.11
2023-03-22T04:49:33.377Z,6.14
2023-03-22T04:52:06.456Z,6.14
2023-03-22T04:54:39.661Z,6.11
2023-03-22T04:57:12.723Z,6.12
2023-03-22T04:59:47.042Z,6.15
2023-03-22T05:02:20.145Z,6.10
2023-03-22T05:04:53.234Z,6.07
2023-03-22T05:07:27.246Z,5.98
2023-03-22T05:10:00.337Z,5.94
2023-03-22T05:12:33.461Z,5.87
2023-03-22T05:15:09.977Z,5.67
2023-03-22T05:17:42.993Z,5.70
2023-03-22T05:20:16.049Z,5.76
2023-03-22T05:22:50.490Z,5.70
2023-03-22T05:25:23.720Z,5.69
2023-03-22T05:28:01.843Z,5.73
2023-03-22T05:30:36.269Z,5.71
2023-03-22T05:33:10.209Z,5.78
2023-03-22T05:35:43.999Z,5.86
2023-03-22T05:38:17.443Z,5.85
2023-03-22T05:40:50.717Z,5.88
2023-03-22T05:43:23.928Z,5.99
2023-03-22T05:45:58.235Z,5.96
2023-03-22T05:48:31.334Z,5.99
2023-03-22T05:51:06.928Z,5.97
2023-03-22T05:53:40.393Z,5.98
2023-03-22T05:56:13.898Z,5.97
2023-03-22T05:58:46.905Z,6.00
2023-03-22T06:01:21.513Z,6.03
2023-03-22T06:03:54.553Z,6.07
2023-03-22T06:06:28.483Z,6.09
2023-03-22T06:09:15.966Z,6.15
2023-03-22T06:11:50.283Z,6.18
2023-03-22T06:14:23.293Z,6.16
2023-03-22T06:16:57.671Z,6.29
2023-03-22T06:19:31.106Z,6.41
2023-03-22T06:22:04.180Z,6.54
2023-03-22T06:24:37.793Z,6.76
2023-03-22T06:27:11.571Z,7.05
2023-03-22T06:29:44.732Z,7.26
2023-03-22T06:32:19.053Z,7.53
2023-03-22T06:34:52.152Z,7.89
2023-03-22T06:37:26.136Z,8.22
2023-03-22T06:39:59.192Z,8.56
2023-03-22T06:42:33.736Z,8.88
2023-03-22T06:45:08.904Z,9.22
2023-03-22T06:47:43.381Z,9.61
2023-03-22T06:50:16.582Z,9.87
2023-03-22T06:52:49.545Z,10.10
2023-03-22T06:55:22.586Z,10.25
2023-03-22T06:57:55.695Z,10.58
2023-03-22T07:00:28.731Z,11.06
2023-03-22T07:03:03.417Z,11.59
2023-03-22T07:05:36.488Z,11.81
2023-03-22T07:08:09.506Z,12.21
2023-03-22T07:10:43.702Z,12.30
2023-03-22T07:13:16.769Z,12.05
2023-03-22T07:15:49.838Z,11.94
2023-03-22T07:18:24.520Z,11.86
2023-03-22T07:20:57.825Z,11.91
2023-03-22T07:23:30.928Z,11.90
2023-03-22T07:26:03.968Z,12.10
2023-03-22T07:28:37.002Z,12.25
2023-03-22T07:31:11.928Z,12.43
2023-03-22T07:33:46.265Z,12.59
2023-03-22T07:36:23.632Z,13.03
2023-03-22T07:38:56.967Z,13.19
2023-03-22T07:41:30.627Z,13.37
2023-03-22T07:44:16.913Z,13.48
2023-03-22T07:46:52.268Z,13.71
2023-03-22T07:49:27.171Z,13.74
2023-03-22T07:52:00.634Z,14.02
2023-03-22T07:54:34.598Z,14.08
2023-03-22T07:57:08.386Z,14.15
2023-03-22T07:59:41.848Z,14.27
2023-03-22T08:02:15.153Z,14.52
2023-03-22T08:04:52.252Z,14.84
2023-03-22T08:07:26.875Z,14.87
2023-03-22T08:09:59.852Z,14.93
2023-03-22T08:12:33.387Z,15.12
2023-03-22T08:15:07.883Z,15.28
2023-03-22T08:17:41.204Z,15.45
2023-03-22T08:20:18.331Z,15.59
2023-03-22T08:22:52.009Z,15.78
2023-03-22T08:25:25.021Z,16.02
2023-03-22T08:27:57.999Z,16.32
2023-03-22T08:30:30.970Z,16.49
2023-03-22T08:33:04.006Z,16.56
2023-03-22T08:35:40.873Z,16.84
2023-03-22T08:38:14.039Z,17.03
2023-03-22T08:40:48.257Z,17.11
2023-03-22T08:43:21.245Z,17.39
2023-03-22T08:45:54.297Z,17.64
2023-03-22T08:48:29.115Z,17.65
2023-03-22T08:51:04.774Z,17.76
2023-03-22T08:53:37.849Z,17.70
2023-03-22T08:56:11.403Z,17.80
2023-03-22T08:58:46.666Z,17.80
2023-03-22T09:01:21.014Z,17.93
2023-03-22T09:03:54.196Z,18.06
2023-03-22T09:06:29.083Z,18.18
2023-03-22T09:09:02.064Z,18.21
2023-03-22T09:11:37.133Z,18.28
2023-03-22T09:14:10.757Z,18.11
2023-03-22T09:16:43.723Z,18.28
2023-03-22T09:19:16.737Z,18.43
2023-03-22T09:21:51.879Z,18.45
2023-03-22T09:24:25.040Z,18.30
2023-03-22T09:26:58.655Z,18.34
2023-03-22T09:29:33.118Z,18.39
2023-03-22T09:32:06.787Z,18.40
2023-03-22T09:34:39.930Z,18.42
2023-03-22T09:37:14.714Z,18.55
2023-03-22T09:39:47.773Z,18.71
2023-03-22T09:42:32.849Z,18.62
2023-03-22T09:45:08.338Z,18.77
2023-03-22T09:47:45.762Z,18.76
2023-03-22T09:50:23.289Z,18.71
2023-03-22T09:52:57.899Z,18.63
2023-03-22T09:55:38.821Z,18.56
2023-03-22T09:58:22.645Z,18.65
2023-03-22T10:01:01.584Z,18.67
2023-03-22T10:04:07.612Z,18.70
2023-03-22T10:06:43.591Z,18.63
2023-03-22T10:09:24.390Z,18.65
2023-03-22T10:12:05.059Z,18.62
2023-03-22T10:14:42.456Z,18.45
2023-03-22T10:17:19.574Z,18.49
2023-03-22T10:19:56.474Z,18.43
2023-03-22T10:22:34.270Z,18.50
2023-03-22T10:25:10.630Z,18.52
2023-03-22T10:27:44.077Z,18.36
2023-03-22T10:30:22.870Z,18.39
2023-03-22T10:33:02.205Z,18.36
2023-03-22T10:35:36.232Z,18.42
2023-03-22T10:38:20.998Z,18.65
2023-03-22T10:40:59.194Z,18.63
2023-03-22T10:43:36.457Z,18.70
2023-03-22T10:46:17.708Z,18.96
2023-03-22T10:48:55.018Z,18.95
2023-03-22T10:51:33.682Z,18.97
2023-03-22T10:54:07.136Z,18.98
2023-03-22T10:56:41.576Z,19.02
2023-03-22T10:59:43.986Z,18.94
2023-03-22T11:02:23.868Z,18.96
2023-03-22T11:04:59.574Z,18.95
2023-03-22T11:07:37.473Z,18.90
2023-03-22T11:10:22.814Z,18.76
2023-03-22T11:13:13.225Z,18.84
2023-03-22T11:15:54.469Z,18.79
2023-03-22T11:18:32.229Z,18.72
2023-03-22T11:21:11.779Z,18.77
2023-03-22T11:23:55.412Z,18.83
2023-03-22T11:26:34.721Z,18.94
2023-03-22T11:29:18.090Z,19.01
2023-03-22T11:31:57.121Z,19.08
2023-03-22T11:34:32.239Z,19.01
2023-03-22T11:37:09.627Z,19.10
2023-03-22T11:39:49.617Z,19.24
2023-03-22T11:42:22.832Z,19.24
2023-03-22T11:44:58.302Z,19.27
2023-03-22T11:47:38.747Z,19.26
2023-03-22T11:50:28.600Z,19.27
2023-03-22T11:53:04.277Z,19.23
2023-03-22T11:55:38.200Z,19.23
2023-03-22T11:58:28.121Z,19.15
2023-03-22T12:01:04.655Z,19.13
2023-03-22T12:03:41.699Z,19.16
2023-03-22T12:06:24.904Z,19.16
2023-03-22T12:09:02.896Z,19.12
2023-03-22T12:11:40.792Z,19.27
2023-03-22T12:14:21.098Z,19.32
2023-03-22T12:17:00.434Z,19.40
2023-03-22T12:19:58.908Z,19.50
2023-03-22T12:22:34.930Z,19.44
2023-03-22T12:25:17.556Z,19.64
2023-03-22T12:27:54.751Z,19.67
2023-03-22T12:30:31.405Z,19.63
2023-03-22T12:33:10.974Z,19.57
2023-03-22T12:35:47.397Z,19.65
2023-03-22T12:38:30.684Z,19.66
2023-03-22T12:41:08.664Z,19.65
2023-03-22T12:43:49.963Z,19.64
2023-03-22T12:46:27.888Z,19.86
2023-03-22T12:49:08.305Z,19.93
2023-03-22T12:51:43.337Z,19.91
2023-03-22T12:54:19.238Z,19.83
2023-03-22T12:56:53.100Z,19.77
2023-03-22T12:59:30.403Z,19.84
2023-03-22T13:02:15.562Z,19.91
2023-03-22T13:04:55.416Z,20.02
2023-03-22T13:07:41.266Z,20.07
2023-03-22T13:10:49.851Z,20.16
2023-03-22T13:13:47.635Z,20.12
2023-03-22T13:16:45.574Z,20.10
2023-03-22T13:19:53.580Z,20.15
2023-03-22T13:22:31.303Z,20.20
2023-03-22T13:25:29.145Z,20.36
2023-03-22T13:28:04.541Z,20.36
2023-03-22T13:30:49.284Z,20.47
2023-03-22T13:33:28.811Z,20.36
2023-03-22T13:36:09.207Z,20.40
2023-03-22T13:38:44.136Z,20.35
2023-03-22T13:41:25.652Z,20.38
2023-03-22T13:44:01.304Z,20.42
2023-03-22T13:46:53.798Z,20.37
2023-03-22T13:49:51.376Z,20.49
2023-03-22T13:52:36.362Z,20.52
2023-03-22T13:55:42.676Z,20.49
2023-03-22T13:58:37.405Z,20.45
2023-03-22T14:01:17.521Z,20.40
2023-03-22T14:03:51.751Z,20.33
2023-03-22T14:06:27.972Z,20.15
2023-03-22T14:09:12.335Z,20.20
2023-03-22T14:11:50.111Z,20.03
2023-03-22T14:14:28.311Z,20.11
2023-03-22T14:17:05.896Z,20.18
2023-03-22T14:19:39.693Z,20.09
